Airfield :
LOGIN :

Register | Disclaimer

   EN    FR    IT 

 










Legend :    VFR   Marginal VFR   IFR   Intensive IFR   Very Intensive IFR
Visi :
Ceiling :
>= 8 km
>= 3000ft
5 to 8 km
1000 to 3000 ft
1500m to 5 km
500 to 1000 ft
800 to 1500m
200 to 500 ft
< 800m
< 200 ft
Symbols :   Thunderstorms  Fog  Heavy snow  Heavy precipitations  Wind > 20 kt
SIGMETs :     Misc.  Thunderstorms  Icing  Turbulence  Mountain Waves  Volcanic Ashes






- Airport Elevation : 423 ft
- IATA code : PIS


LFBI - Poitiers

CURRENT METAR :
  • 301230Z AUTO 20004KT 140V240 9999 FEW014 16/11 Q1026 NOSIG

EXPIRED METARs :
  • 301200Z AUTO 19004KT 140V230 9999 BKN013 15/11 Q1026 BECMG NSC
  • 301130Z AUTO 18005KT 9999 BKN011 14/11 Q1026 BECMG NSC
  • 301100Z AUTO 20007KT 180V250 9999 BKN009 14/12 Q1026 BECMG NSC
  • 301030Z AUTO 20006KT 9999 BKN006 13/12 Q1026 BECMG NSC
  • 301000Z AUTO 21007KT 9999 OVC004 13/12 Q1026 BECMG NSC

TAF TAF LFBI
Valid from the 30 at 12:00 until the 31 at 12:00 UTC


301100Z 3012/3112 18005KT 9999 BKN010
BECMG 3012/3014 CAVOK
BECMG 3022/3024 0300 FG VV///
BECMG 3110/3112 CAVOK



MET'MAP, your aeronautical weather chart ! - Copyright ORBIFLY December 2007 - Disclaimer

ORBIFLY MET'MAP TEAM :

Programming & Development : Alexandra Zaïnal
Concept & original design : Baudouin d'Aumeries
Assistance for programming : Marc-Olivier Méhu
Technical & hardware support : Manuel Goepfert

Contact : metmap@orbifly.com




SOURCES & CREDITS :

   NOAA